createdAt,value
2023-08-08T00:01:57.332Z,95.22
2023-08-08T00:04:24.446Z,94.90
2023-08-08T00:06:51.382Z,95.47
2023-08-08T00:09:18.223Z,95.69
2023-08-08T00:11:45.203Z,95.47
2023-08-08T00:14:12.069Z,95.13
2023-08-08T00:16:39.007Z,95.09
2023-08-08T00:19:05.850Z,96.06
2023-08-08T00:21:32.746Z,96.24
2023-08-08T00:23:59.586Z,95.81
2023-08-08T00:26:26.527Z,95.84
2023-08-08T00:28:53.377Z,96.46
2023-08-08T00:31:21.214Z,95.70
2023-08-08T00:33:48.218Z,95.52
2023-08-08T00:36:15.205Z,95.55
2023-08-08T00:38:42.088Z,95.99
2023-08-08T00:41:08.988Z,95.27
2023-08-08T00:43:35.852Z,94.77
2023-08-08T00:46:02.875Z,95.07
2023-08-08T00:48:29.808Z,96.86
2023-08-08T00:50:56.738Z,96.50
2023-08-08T00:53:24.490Z,97.01
2023-08-08T00:55:52.325Z,96.37
2023-08-08T00:58:19.240Z,96.76
2023-08-08T01:00:46.176Z,97.40
2023-08-08T01:03:13.163Z,98.17
2023-08-08T01:05:51.549Z,97.79
2023-08-08T01:08:24.376Z,98.22
2023-08-08T01:10:51.547Z,98.80
2023-08-08T01:13:23.722Z,98.23
2023-08-08T01:15:51.394Z,97.86
2023-08-08T01:18:20.379Z,97.65
2023-08-08T01:20:48.412Z,97.67
2023-08-08T01:23:33.878Z,97.79
2023-08-08T01:26:01.019Z,97.57
2023-08-08T01:28:28.302Z,97.38
2023-08-08T01:30:55.447Z,97.19
2023-08-08T01:33:23.405Z,97.67
2023-08-08T01:35:55.981Z,98.98
2023-08-08T01:38:31.577Z,98.44
2023-08-08T01:40:59.239Z,97.70
2023-08-08T01:43:27.213Z,97.14
2023-08-08T01:45:54.797Z,96.54
2023-08-08T01:48:21.795Z,96.30
2023-08-08T01:50:48.684Z,96.40
2023-08-08T01:53:15.651Z,96.56
2023-08-08T01:55:42.596Z,96.95
2023-08-08T01:58:09.654Z,96.34
2023-08-08T02:00:37.917Z,98.14
2023-08-08T02:03:05.368Z,97.79
2023-08-08T02:05:32.448Z,98.77
2023-08-08T02:07:59.412Z,99.49
2023-08-08T02:10:26.361Z,99.59
2023-08-08T02:12:53.227Z,99.17
2023-08-08T02:15:20.165Z,98.83
2023-08-08T02:17:47.276Z,99.41
2023-08-08T02:20:14.356Z,99.29
2023-08-08T02:22:41.220Z,99.97
2023-08-08T02:25:08.694Z,99.51
2023-08-08T02:27:35.639Z,99.05
2023-08-08T02:30:02.494Z,99.26
2023-08-08T02:32:29.447Z,99.34
2023-08-08T02:34:56.433Z,99.27
2023-08-08T02:37:23.454Z,99.43
2023-08-08T02:39:50.651Z,99.42
2023-08-08T02:42:17.509Z,100.00
2023-08-08T02:44:44.449Z,99.57
2023-08-08T02:47:11.359Z,99.61
2023-08-08T02:49:38.235Z,99.23
2023-08-08T02:52:05.696Z,99.25
2023-08-08T02:54:32.603Z,99.23
2023-08-08T02:56:59.484Z,98.99
2023-08-08T02:59:26.380Z,98.72
2023-08-08T03:01:53.506Z,99.06
2023-08-08T03:04:20.419Z,99.31
2023-08-08T03:06:47.324Z,98.59
2023-08-08T03:09:14.205Z,98.89
2023-08-08T03:11:42.969Z,98.59
2023-08-08T03:14:10.354Z,98.99
2023-08-08T03:16:37.308Z,98.60
2023-08-08T03:19:04.178Z,100.00
2023-08-08T03:21:31.242Z,99.97
2023-08-08T03:23:58.949Z,100.00
2023-08-08T03:26:25.905Z,100.00
2023-08-08T03:28:54.642Z,99.99
2023-08-08T03:31:22.559Z,100.00
2023-08-08T03:33:49.449Z,100.00
2023-08-08T03:36:17.106Z,100.00
2023-08-08T03:38:47.108Z,100.00
2023-08-08T03:41:14.951Z,100.00
2023-08-08T03:43:42.027Z,100.00
2023-08-08T03:46:08.989Z,100.00
2023-08-08T03:48:35.978Z,100.00
2023-08-08T03:51:02.902Z,100.00
2023-08-08T03:53:30.102Z,100.00
2023-08-08T03:55:56.971Z,100.00
2023-08-08T03:58:23.940Z,100.00
2023-08-08T04:00:50.847Z,100.00
2023-08-08T04:03:19.869Z,100.00
2023-08-08T04:05:48.273Z,100.00
2023-08-08T04:08:16.449Z,100.00
2023-08-08T04:10:45.200Z,100.00
2023-08-08T04:13:12.255Z,100.00
2023-08-08T04:15:39.173Z,100.00
2023-08-08T04:18:08.045Z,100.00
2023-08-08T04:20:35.554Z,100.00
2023-08-08T04:23:02.673Z,100.00
2023-08-08T04:25:30.097Z,100.00
2023-08-08T04:27:57.108Z,100.00
2023-08-08T04:30:25.036Z,100.00
2023-08-08T04:32:52.175Z,100.00
2023-08-08T04:35:19.281Z,100.00
2023-08-08T04:37:46.259Z,100.00
2023-08-08T04:40:13.325Z,100.00
2023-08-08T04:42:41.092Z,100.00
2023-08-08T04:45:08.768Z,100.00
2023-08-08T04:47:35.767Z,100.00
2023-08-08T04:50:02.728Z,100.00
2023-08-08T04:52:29.713Z,100.00
2023-08-08T04:54:56.630Z,100.00
2023-08-08T04:57:23.511Z,100.00
2023-08-08T04:59:50.598Z,100.00
2023-08-08T05:02:17.779Z,100.00
2023-08-08T05:04:44.959Z,100.00
2023-08-08T05:07:11.825Z,100.00
2023-08-08T05:09:38.680Z,100.00
2023-08-08T05:12:06.379Z,100.00
2023-08-08T05:14:33.504Z,100.00
2023-08-08T05:17:00.423Z,100.00
2023-08-08T05:19:27.606Z,100.00
2023-08-08T05:21:54.494Z,100.00
2023-08-08T05:24:21.400Z,100.00
2023-08-08T05:26:48.382Z,100.00
2023-08-08T05:29:15.247Z,100.00
2023-08-08T05:31:42.124Z,100.00
2023-08-08T05:34:09.060Z,100.00
2023-08-08T05:36:35.937Z,100.00
2023-08-08T05:39:02.822Z,100.00
2023-08-08T05:41:29.730Z,100.00
2023-08-08T05:43:56.585Z,100.00
2023-08-08T05:46:23.514Z,100.00
2023-08-08T05:48:50.409Z,100.00
2023-08-08T05:51:17.346Z,100.00
2023-08-08T05:53:44.364Z,100.00
2023-08-08T05:56:11.316Z,100.00
2023-08-08T05:58:38.674Z,100.00
2023-08-08T06:01:10.948Z,99.93
2023-08-08T06:03:39.189Z,99.81
2023-08-08T06:06:06.368Z,99.53
2023-08-08T06:08:33.552Z,99.89
2023-08-08T06:11:00.577Z,99.92
2023-08-08T06:13:27.453Z,100.00
2023-08-08T06:15:54.430Z,100.00
2023-08-08T06:18:21.380Z,99.99
2023-08-08T06:20:48.325Z,99.13
2023-08-08T06:23:16.446Z,99.04
2023-08-08T06:25:43.539Z,99.15
2023-08-08T06:28:10.658Z,99.10
2023-08-08T06:30:37.677Z,99.10
2023-08-08T06:33:04.767Z,98.97
2023-08-08T06:35:31.872Z,99.47
2023-08-08T06:37:58.783Z,98.98
2023-08-08T06:40:25.877Z,99.88
2023-08-08T06:42:52.878Z,99.31
2023-08-08T06:45:20.352Z,97.44
2023-08-08T06:47:47.714Z,97.44
2023-08-08T06:50:14.692Z,97.41
2023-08-08T06:52:41.612Z,95.22
2023-08-08T06:55:09.090Z,96.04
2023-08-08T06:57:39.067Z,94.96
2023-08-08T07:00:07.236Z,92.50
2023-08-08T07:02:34.255Z,88.81
2023-08-08T07:05:01.361Z,90.36
2023-08-08T07:07:29.122Z,90.47
2023-08-08T07:09:56.036Z,87.30
2023-08-08T07:12:22.944Z,84.17
2023-08-08T07:14:49.821Z,78.98
2023-08-08T07:17:17.172Z,79.95
2023-08-08T07:19:44.165Z,79.17
2023-08-08T07:22:11.224Z,77.89
2023-08-08T07:24:40.343Z,76.33
2023-08-08T07:27:07.411Z,75.25
2023-08-08T07:29:34.329Z,74.04
2023-08-08T07:32:05.456Z,73.39
2023-08-08T07:34:33.510Z,73.92
2023-08-08T07:37:00.924Z,72.40
2023-08-08T07:39:28.010Z,72.80
2023-08-08T07:41:54.979Z,71.82
2023-08-08T07:44:22.173Z,71.05
2023-08-08T07:46:49.064Z,69.98
2023-08-08T07:49:16.324Z,68.68
2023-08-08T07:51:43.259Z,67.65
2023-08-08T07:54:11.898Z,66.83
2023-08-08T07:56:39.016Z,66.90
2023-08-08T07:59:06.698Z,65.58
2023-08-08T08:01:33.639Z,65.36
2023-08-08T08:04:04.152Z,63.55
2023-08-08T08:06:31.112Z,63.35
2023-08-08T08:08:57.998Z,64.19
2023-08-08T08:11:24.947Z,63.52
2023-08-08T08:13:51.842Z,62.77
2023-08-08T08:16:18.836Z,61.54
2023-08-08T08:18:45.807Z,62.87
2023-08-08T08:21:14.400Z,61.42
2023-08-08T08:23:41.615Z,59.85
2023-08-08T08:26:08.512Z,60.62
2023-08-08T08:28:35.477Z,60.74
2023-08-08T08:31:07.211Z,58.89
2023-08-08T08:33:34.151Z,58.27
2023-08-08T08:36:01.016Z,58.35
2023-08-08T08:38:27.870Z,55.75
2023-08-08T08:40:57.782Z,55.41
2023-08-08T08:43:24.838Z,56.82
2023-08-08T08:45:55.054Z,55.61
2023-08-08T08:48:23.114Z,54.88
2023-08-08T08:50:50.664Z,55.58
2023-08-08T08:53:19.054Z,54.68
2023-08-08T08:55:47.650Z,52.31
2023-08-08T08:58:21.128Z,54.50
2023-08-08T09:00:48.270Z,51.73
2023-08-08T09:03:15.302Z,50.93
2023-08-08T09:05:43.576Z,52.02
2023-08-08T09:08:10.796Z,52.77
2023-08-08T09:10:38.173Z,51.13
2023-08-08T09:13:05.481Z,50.32
2023-08-08T09:15:34.431Z,49.27
2023-08-08T09:18:02.596Z,49.37
2023-08-08T09:20:30.373Z,50.94
2023-08-08T09:22:58.202Z,48.88
2023-08-08T09:25:26.976Z,48.55
2023-08-08T09:27:54.799Z,49.76
2023-08-08T09:30:22.047Z,46.94
2023-08-08T09:32:49.270Z,48.15
2023-08-08T09:35:16.808Z,46.16
2023-08-08T09:37:43.762Z,45.50
2023-08-08T09:40:14.590Z,46.63
2023-08-08T09:42:43.053Z,45.48
2023-08-08T09:45:11.145Z,45.96
2023-08-08T09:47:39.009Z,45.48
2023-08-08T09:50:07.084Z,45.94
2023-08-08T09:52:40.483Z,43.25
2023-08-08T09:55:07.955Z,45.05
2023-08-08T09:57:34.985Z,42.75
2023-08-08T10:00:05.722Z,43.13
2023-08-08T10:02:33.625Z,42.13
2023-08-08T10:05:01.214Z,42.86
2023-08-08T10:07:28.128Z,42.25
2023-08-08T10:09:55.275Z,42.96
2023-08-08T10:12:24.073Z,43.57
2023-08-08T10:14:51.632Z,43.86
2023-08-08T10:17:19.929Z,44.06
2023-08-08T10:19:56.437Z,44.11
2023-08-08T10:22:25.781Z,44.87
2023-08-08T10:24:55.636Z,45.42
2023-08-08T10:27:33.777Z,46.04
2023-08-08T10:30:11.864Z,44.42
2023-08-08T10:32:45.209Z,44.70
2023-08-08T10:35:13.379Z,45.75
2023-08-08T10:37:41.021Z,44.05
2023-08-08T10:40:09.539Z,44.11
2023-08-08T10:42:47.488Z,44.41
2023-08-08T10:45:17.096Z,44.14
2023-08-08T10:47:46.442Z,44.29
2023-08-08T10:50:17.064Z,45.42
2023-08-08T10:52:55.502Z,45.20
2023-08-08T10:55:37.401Z,44.31
2023-08-08T10:58:04.238Z,44.94
2023-08-08T11:00:33.886Z,45.47
2023-08-08T11:03:01.676Z,47.26
2023-08-08T11:05:35.466Z,46.44
2023-08-08T11:08:05.185Z,45.88
2023-08-08T11:10:41.694Z,43.72
2023-08-08T11:13:10.010Z,43.87
2023-08-08T11:15:38.449Z,44.58
2023-08-08T11:18:07.068Z,43.54
2023-08-08T11:20:36.780Z,43.44
2023-08-08T11:23:07.252Z,42.69
2023-08-08T11:25:34.300Z,43.24
2023-08-08T11:28:01.231Z,44.53
2023-08-08T11:30:37.374Z,43.22
2023-08-08T11:35:36.399Z,42.93
2023-08-08T11:38:05.645Z,41.04
2023-08-08T11:40:33.097Z,40.42
2023-08-08T11:43:00.585Z,41.59
2023-08-08T11:45:27.627Z,41.29
2023-08-08T11:47:56.696Z,42.04
2023-08-08T11:50:26.230Z,42.08
2023-08-08T11:52:55.214Z,41.17
2023-08-08T11:55:28.688Z,39.96
2023-08-08T11:58:03.297Z,41.71
2023-08-08T12:00:32.163Z,39.73
2023-08-08T12:03:02.144Z,40.21
2023-08-08T12:05:29.818Z,38.84
2023-08-08T12:07:56.896Z,38.93
2023-08-08T12:10:25.448Z,38.51
2023-08-08T12:12:59.030Z,36.83
2023-08-08T12:15:38.584Z,37.42
2023-08-08T12:18:06.340Z,36.21
2023-08-08T12:20:33.620Z,36.11
2023-08-08T12:23:01.305Z,36.81
2023-08-08T12:25:28.760Z,37.59
2023-08-08T12:27:56.019Z,35.23
2023-08-08T12:30:26.868Z,34.68
2023-08-08T12:32:54.845Z,34.48
2023-08-08T12:35:21.857Z,35.64
2023-08-08T12:37:48.834Z,34.51
2023-08-08T12:40:15.720Z,35.06
2023-08-08T12:42:42.980Z,34.41
2023-08-08T12:45:11.026Z,35.28
2023-08-08T12:47:38.995Z,35.67
2023-08-08T12:50:07.280Z,35.47
2023-08-08T12:52:34.200Z,35.02
2023-08-08T12:55:01.390Z,34.71
2023-08-08T12:57:28.273Z,35.65
2023-08-08T12:59:55.267Z,35.02
2023-08-08T13:02:22.196Z,34.39
2023-08-08T13:04:49.087Z,34.42
2023-08-08T13:07:15.996Z,34.92
2023-08-08T13:09:43.100Z,35.53
2023-08-08T13:12:10.195Z,35.98
2023-08-08T13:14:37.640Z,36.62
2023-08-08T13:17:04.608Z,36.16
2023-08-08T13:19:31.560Z,35.05
2023-08-08T13:21:59.180Z,36.55
2023-08-08T13:24:26.612Z,33.79
2023-08-08T13:26:53.504Z,34.67
2023-08-08T13:29:20.454Z,33.79
2023-08-08T13:31:47.353Z,32.75
2023-08-08T13:34:14.349Z,33.75
2023-08-08T13:36:41.513Z,33.08
2023-08-08T13:39:10.738Z,33.96
2023-08-08T13:41:37.629Z,34.33
2023-08-08T13:44:04.953Z,35.03
2023-08-08T13:46:31.939Z,34.92
2023-08-08T13:48:58.921Z,35.16
2023-08-08T13:51:25.831Z,33.43
2023-08-08T13:53:52.734Z,33.89
2023-08-08T13:56:19.631Z,35.33
2023-08-08T13:58:46.631Z,33.45
2023-08-08T14:01:13.572Z,32.98
2023-08-08T14:03:40.596Z,33.42
2023-08-08T14:06:07.632Z,32.92
2023-08-08T14:08:34.581Z,34.07
2023-08-08T14:11:01.532Z,33.30
2023-08-08T14:13:28.428Z,33.84
2023-08-08T14:15:55.458Z,34.12
2023-08-08T14:18:22.396Z,35.04
2023-08-08T14:20:49.324Z,34.74
2023-08-08T14:23:16.215Z,36.53
2023-08-08T14:25:43.683Z,37.12
2023-08-08T14:28:10.593Z,37.48
2023-08-08T14:30:38.372Z,37.68
2023-08-08T14:33:05.456Z,39.05
2023-08-08T14:35:32.497Z,39.45
2023-08-08T14:37:59.401Z,39.21
2023-08-08T14:40:26.876Z,39.31
2023-08-08T14:42:56.303Z,39.27
2023-08-08T14:45:23.526Z,38.91
2023-08-08T14:47:50.467Z,39.75
2023-08-08T14:50:18.155Z,39.70
2023-08-08T14:52:45.090Z,39.65
2023-08-08T14:55:12.164Z,39.51
2023-08-08T14:57:39.062Z,39.38
2023-08-08T15:00:08.064Z,39.44
2023-08-08T15:02:35.101Z,37.54
2023-08-08T15:05:02.250Z,37.12
2023-08-08T15:07:29.144Z,38.53
2023-08-08T15:09:56.311Z,38.53
2023-08-08T15:12:23.201Z,36.93
2023-08-08T15:14:52.041Z,37.13
2023-08-08T15:17:19.513Z,38.35
2023-08-08T15:19:46.996Z,38.30
2023-08-08T15:22:13.998Z,37.73
2023-08-08T15:24:40.991Z,38.20
2023-08-08T15:27:07.951Z,37.62
2023-08-08T15:29:34.926Z,37.14
2023-08-08T15:32:01.886Z,37.36
2023-08-08T15:34:29.006Z,37.50
2023-08-08T15:36:59.825Z,37.30
2023-08-08T15:39:26.994Z,37.36
2023-08-08T15:41:53.954Z,37.95
2023-08-08T15:44:20.836Z,37.32
2023-08-08T15:46:48.720Z,38.19
2023-08-08T15:49:15.719Z,37.84
2023-08-08T15:51:43.389Z,39.47
2023-08-08T15:54:10.411Z,39.44
2023-08-08T15:56:39.464Z,38.83
2023-08-08T15:59:07.190Z,39.85
2023-08-08T16:01:34.957Z,39.62
2023-08-08T16:04:01.959Z,39.58
2023-08-08T16:06:30.328Z,39.63
2023-08-08T16:08:57.217Z,39.41
2023-08-08T16:11:24.118Z,40.13
2023-08-08T16:13:51.149Z,39.65
2023-08-08T16:16:18.117Z,39.87
2023-08-08T16:18:45.136Z,40.52
2023-08-08T16:21:12.196Z,39.79
2023-08-08T16:23:39.077Z,39.88
2023-08-08T16:26:05.982Z,39.84
2023-08-08T16:28:33.669Z,39.96
2023-08-08T16:31:00.735Z,40.30
2023-08-08T16:33:27.737Z,40.19
2023-08-08T16:35:55.126Z,40.34
2023-08-08T16:38:22.032Z,40.27
2023-08-08T16:40:49.003Z,40.45
2023-08-08T16:43:17.288Z,40.15
2023-08-08T16:45:44.640Z,40.62
2023-08-08T16:48:11.525Z,40.97
2023-08-08T16:50:38.501Z,41.20
2023-08-08T16:53:05.491Z,40.69
2023-08-08T16:55:32.462Z,40.98
2023-08-08T16:57:59.456Z,40.87
2023-08-08T17:00:26.864Z,41.25
2023-08-08T17:02:53.886Z,40.84
2023-08-08T17:05:20.925Z,41.67
2023-08-08T17:07:50.324Z,42.33
2023-08-08T17:10:17.331Z,42.10
2023-08-08T17:12:44.647Z,41.35
2023-08-08T17:15:11.660Z,41.58
2023-08-08T17:17:38.648Z,41.45
2023-08-08T17:20:06.695Z,42.00
2023-08-08T17:22:34.012Z,41.88
2023-08-08T17:25:01.581Z,42.56
2023-08-08T17:27:28.928Z,42.68
2023-08-08T17:29:55.858Z,42.44
2023-08-08T17:32:22.826Z,42.65
2023-08-08T17:34:49.803Z,43.10
2023-08-08T17:37:16.895Z,43.51
2023-08-08T17:39:43.817Z,43.93
2023-08-08T17:42:11.096Z,44.35
2023-08-08T17:44:37.981Z,44.54
2023-08-08T17:47:04.883Z,44.47
2023-08-08T17:49:31.787Z,44.31
2023-08-08T17:51:59.127Z,45.40
2023-08-08T17:54:26.668Z,45.14
2023-08-08T17:56:53.643Z,45.04
2023-08-08T17:59:20.606Z,45.46
2023-08-08T18:01:48.143Z,45.67
2023-08-08T18:04:15.202Z,46.40
2023-08-08T18:06:42.209Z,46.70
2023-08-08T18:09:09.192Z,46.62
2023-08-08T18:11:39.667Z,47.35
2023-08-08T18:14:10.586Z,48.04
2023-08-08T18:16:38.217Z,48.37
2023-08-08T18:19:05.579Z,48.48
2023-08-08T18:21:33.471Z,49.08
2023-08-08T18:24:00.524Z,50.13
2023-08-08T18:26:28.111Z,49.93
2023-08-08T18:28:55.285Z,51.00
2023-08-08T18:31:22.499Z,51.49
2023-08-08T18:33:49.425Z,51.75
2023-08-08T18:36:16.302Z,51.00
2023-08-08T18:38:44.024Z,52.56
2023-08-08T18:41:11.514Z,53.05
2023-08-08T18:43:38.717Z,53.19
2023-08-08T18:46:07.043Z,53.53
2023-08-08T18:48:34.000Z,54.50
2023-08-08T18:51:01.302Z,55.18
2023-08-08T18:53:28.258Z,55.72
2023-08-08T18:55:55.233Z,55.94
2023-08-08T18:58:22.121Z,55.99
2023-08-08T19:00:50.020Z,56.48
2023-08-08T19:03:19.004Z,57.11
2023-08-08T19:05:46.385Z,57.68
2023-08-08T19:08:13.270Z,57.85
2023-08-08T19:10:40.160Z,59.49
2023-08-08T19:13:07.251Z,59.84
2023-08-08T19:15:34.146Z,60.67
2023-08-08T19:18:01.241Z,61.42
2023-08-08T19:20:28.178Z,62.30
2023-08-08T19:22:55.134Z,62.88
2023-08-08T19:25:23.228Z,62.59
2023-08-08T19:27:50.130Z,63.67
2023-08-08T19:30:17.032Z,64.35
2023-08-08T19:32:44.109Z,64.83
2023-08-08T19:35:11.034Z,65.04
2023-08-08T19:37:37.945Z,66.37
2023-08-08T19:40:05.467Z,66.70
2023-08-08T19:42:32.400Z,66.44
2023-08-08T19:44:59.317Z,66.27
2023-08-08T19:47:26.223Z,66.17
2023-08-08T19:49:53.115Z,65.94
2023-08-08T19:52:20.231Z,66.37
2023-08-08T19:54:47.160Z,66.72
2023-08-08T19:57:14.060Z,66.84
2023-08-08T19:59:40.975Z,67.72
2023-08-08T20:02:08.694Z,69.78
2023-08-08T20:04:35.594Z,71.68
2023-08-08T20:07:02.499Z,71.98
2023-08-08T20:09:29.778Z,72.47
2023-08-08T20:11:56.711Z,72.93
2023-08-08T20:14:23.739Z,73.71
2023-08-08T20:16:50.625Z,73.46
2023-08-08T20:19:18.138Z,73.76
2023-08-08T20:21:45.044Z,73.03
2023-08-08T20:24:14.095Z,74.15
2023-08-08T20:26:41.644Z,73.78
2023-08-08T20:29:08.968Z,74.40
2023-08-08T20:31:36.020Z,74.25
2023-08-08T20:34:02.967Z,73.66
2023-08-08T20:36:29.861Z,74.46
2023-08-08T20:38:56.754Z,74.63
2023-08-08T20:41:23.732Z,73.79
2023-08-08T20:43:50.632Z,74.38
2023-08-08T20:46:17.583Z,75.83
2023-08-08T20:48:44.639Z,75.80
2023-08-08T20:51:11.568Z,75.86
2023-08-08T20:53:38.741Z,75.55
2023-08-08T20:56:05.826Z,76.52
2023-08-08T20:58:33.020Z,76.45
2023-08-08T21:00:59.983Z,77.40
2023-08-08T21:03:27.021Z,77.44
2023-08-08T21:05:54.033Z,78.89
2023-08-08T21:08:21.005Z,79.01
2023-08-08T21:10:48.281Z,79.70
2023-08-08T21:13:15.221Z,79.93
2023-08-08T21:15:42.203Z,79.78
2023-08-08T21:18:09.116Z,79.89
2023-08-08T21:20:36.065Z,80.00
2023-08-08T21:23:03.017Z,79.91
2023-08-08T21:25:29.910Z,79.42
2023-08-08T21:27:57.069Z,78.98
2023-08-08T21:30:24.132Z,80.05
2023-08-08T21:32:51.089Z,80.04
2023-08-08T21:35:18.060Z,81.29
2023-08-08T21:37:45.007Z,81.34
2023-08-08T21:40:12.405Z,81.91
2023-08-08T21:42:39.514Z,83.06
2023-08-08T21:45:07.429Z,83.25
2023-08-08T21:47:35.092Z,82.73
2023-08-08T21:50:02.453Z,82.76
2023-08-08T21:52:29.342Z,83.95
2023-08-08T21:54:56.224Z,83.68
2023-08-08T21:57:23.122Z,84.43
2023-08-08T21:59:49.979Z,83.71
2023-08-08T22:02:18.214Z,82.60
2023-08-08T22:04:45.262Z,82.68
2023-08-08T22:07:12.180Z,84.20
2023-08-08T22:09:39.110Z,85.29
2023-08-08T22:12:06.448Z,84.64
2023-08-08T22:14:33.323Z,85.05
2023-08-08T22:17:01.583Z,85.07
2023-08-08T22:19:28.671Z,84.35
2023-08-08T22:21:55.588Z,85.68
2023-08-08T22:24:22.523Z,86.23
2023-08-08T22:26:49.403Z,86.72
2023-08-08T22:29:16.333Z,87.07
2023-08-08T22:31:43.330Z,86.67
2023-08-08T22:34:10.384Z,87.73
2023-08-08T22:36:37.256Z,86.75
2023-08-08T22:39:04.584Z,86.02
2023-08-08T22:41:31.456Z,86.03
2023-08-08T22:43:58.350Z,85.50
2023-08-08T22:46:25.276Z,84.88
2023-08-08T22:48:52.285Z,84.89
2023-08-08T22:51:19.213Z,84.43
2023-08-08T22:53:46.152Z,84.15
2023-08-08T22:56:13.952Z,84.02
2023-08-08T22:58:40.839Z,84.67
2023-08-08T23:01:08.190Z,84.69
2023-08-08T23:03:38.424Z,84.74
2023-08-08T23:06:06.467Z,85.78
2023-08-08T23:08:33.360Z,85.01
2023-08-08T23:11:00.756Z,84.40
2023-08-08T23:13:27.752Z,84.81
2023-08-08T23:15:54.769Z,85.01
2023-08-08T23:18:21.709Z,85.23
2023-08-08T23:20:50.465Z,85.75
2023-08-08T23:23:17.409Z,85.99
2023-08-08T23:25:45.665Z,85.75
2023-08-08T23:28:12.630Z,85.49
2023-08-08T23:30:39.547Z,86.83
2023-08-08T23:33:06.445Z,87.57
2023-08-08T23:35:33.492Z,88.11
2023-08-08T23:38:00.413Z,88.47
2023-08-08T23:40:27.383Z,87.56
2023-08-08T23:42:54.459Z,88.97
2023-08-08T23:45:21.683Z,88.95
2023-08-08T23:47:48.588Z,88.90
2023-08-08T23:50:15.833Z,88.27
2023-08-08T23:52:43.076Z,88.20
2023-08-08T23:55:11.165Z,87.93
2023-08-08T23:57:38.410Z,87.60
